Terminal Aerodrome Forecast
Issued by NWS

Home | Current Version | Previous Version | Text Only | Print | Product List | Glossary On
Versions: 1 2 3 4 5 6 7 8 9 10 11 12 13 14 15 16 17 18 19 20 21 22 23 24 25 26 27 28 29 30 31 32
526
FTUS42 KCAE 240833 AAA
TAFOGB
TAF AMD
KOGB 240833Z 2409/2506 21007KT P6SM BKN060
     FM241400 26010KT P6SM VCSH BKN035 OVC080
     FM241800 25010KT P6SM VCTS SCT030CB OVC050=

USA.gov is the U.S. government's official web portal to all federal, state and local government web resources and services.